sensor_id;sensor_type;location;lat;lon;timestamp;P1;durP1;ratioP1;P2;durP2;ratioP2
52033;SDS011;38045;52.988;6.536;2022-11-14T00:01:59;40.45;;;25.60;;
52033;SDS011;38045;52.988;6.536;2022-11-14T00:04:24;41.35;;;25.60;;
52033;SDS011;38045;52.988;6.536;2022-11-14T00:06:50;31.15;;;21.42;;
52033;SDS011;38045;52.988;6.536;2022-11-14T00:09:15;35.92;;;24.42;;
52033;SDS011;38045;52.988;6.536;2022-11-14T00:11:41;40.75;;;25.63;;
52033;SDS011;38045;52.988;6.536;2022-11-14T00:14:08;39.70;;;27.10;;
52033;SDS011;38045;52.988;6.536;2022-11-14T00:16:34;42.40;;;25.70;;
52033;SDS011;38045;52.988;6.536;2022-11-14T00:18:59;44.55;;;26.85;;
52033;SDS011;38045;52.988;6.536;2022-11-14T00:21:25;38.97;;;26.15;;
52033;SDS011;38045;52.988;6.536;2022-11-14T00:23:50;38.22;;;23.52;;
52033;SDS011;38045;52.988;6.536;2022-11-14T00:26:16;43.60;;;25.20;;
52033;SDS011;38045;52.988;6.536;2022-11-14T00:28:41;30.48;;;23.40;;
52033;SDS011;38045;52.988;6.536;2022-11-14T00:31:08;37.35;;;26.67;;
52033;SDS011;38045;52.988;6.536;2022-11-14T00:33:34;38.00;;;23.17;;
52033;SDS011;38045;52.988;6.536;2022-11-14T00:36:00;26.42;;;18.10;;
52033;SDS011;38045;52.988;6.536;2022-11-14T00:38:25;33.17;;;21.70;;
52033;SDS011;38045;52.988;6.536;2022-11-14T00:40:51;38.38;;;26.25;;
52033;SDS011;38045;52.988;6.536;2022-11-14T00:43:16;38.42;;;26.50;;
52033;SDS011;38045;52.988;6.536;2022-11-14T00:45:45;39.25;;;25.70;;
52033;SDS011;38045;52.988;6.536;2022-11-14T00:48:12;39.28;;;26.45;;
52033;SDS011;38045;52.988;6.536;2022-11-14T00:50:38;37.00;;;25.13;;
52033;SDS011;38045;52.988;6.536;2022-11-14T00:53:04;39.00;;;25.10;;
52033;SDS011;38045;52.988;6.536;2022-11-14T00:55:29;33.22;;;23.17;;
52033;SDS011;38045;52.988;6.536;2022-11-14T00:57:55;32.63;;;24.77;;
52033;SDS011;38045;52.988;6.536;2022-11-14T01:00:21;36.90;;;25.70;;
52033;SDS011;38045;52.988;6.536;2022-11-14T01:02:46;34.13;;;25.38;;
52033;SDS011;38045;52.988;6.536;2022-11-14T01:05:12;39.92;;;27.77;;
52033;SDS011;38045;52.988;6.536;2022-11-14T01:07:38;37.15;;;23.20;;
52033;SDS011;38045;52.988;6.536;2022-11-14T01:10:03;40.75;;;27.65;;
52033;SDS011;38045;52.988;6.536;2022-11-14T01:12:29;39.58;;;28.48;;
52033;SDS011;38045;52.988;6.536;2022-11-14T01:14:55;39.15;;;27.02;;
52033;SDS011;38045;52.988;6.536;2022-11-14T01:17:20;41.10;;;29.33;;
52033;SDS011;38045;52.988;6.536;2022-11-14T01:19:46;44.75;;;29.13;;
52033;SDS011;38045;52.988;6.536;2022-11-14T01:22:12;32.22;;;21.08;;
52033;SDS011;38045;52.988;6.536;2022-11-14T01:24:37;39.65;;;27.10;;
52033;SDS011;38045;52.988;6.536;2022-11-14T01:27:03;34.53;;;24.67;;
52033;SDS011;38045;52.988;6.536;2022-11-14T01:29:29;39.85;;;27.23;;
52033;SDS011;38045;52.988;6.536;2022-11-14T01:31:54;41.10;;;28.27;;
52033;SDS011;38045;52.988;6.536;2022-11-14T01:34:21;37.80;;;26.38;;
52033;SDS011;38045;52.988;6.536;2022-11-14T01:36:47;49.15;;;32.78;;
52033;SDS011;38045;52.988;6.536;2022-11-14T01:39:12;44.40;;;29.48;;
52033;SDS011;38045;52.988;6.536;2022-11-14T01:41:38;42.63;;;31.02;;
52033;SDS011;38045;52.988;6.536;2022-11-14T01:44:06;44.65;;;32.05;;
52033;SDS011;38045;52.988;6.536;2022-11-14T01:46:40;42.90;;;31.48;;
52033;SDS011;38045;52.988;6.536;2022-11-14T01:49:17;49.40;;;35.65;;
52033;SDS011;38045;52.988;6.536;2022-11-14T01:51:50;51.33;;;35.58;;
52033;SDS011;38045;52.988;6.536;2022-11-14T01:54:21;50.75;;;33.42;;
52033;SDS011;38045;52.988;6.536;2022-11-14T01:56:51;55.95;;;37.65;;
52033;SDS011;38045;52.988;6.536;2022-11-14T01:59:21;58.05;;;35.85;;
52033;SDS011;38045;52.988;6.536;2022-11-14T02:01:50;52.47;;;38.00;;
52033;SDS011;38045;52.988;6.536;2022-11-14T02:04:27;60.10;;;35.35;;
52033;SDS011;38045;52.988;6.536;2022-11-14T02:06:57;57.67;;;39.25;;
52033;SDS011;38045;52.988;6.536;2022-11-14T02:11:52;69.90;;;44.45;;
52033;SDS011;38045;52.988;6.536;2022-11-14T02:14:21;58.33;;;39.25;;
52033;SDS011;38045;52.988;6.536;2022-11-14T02:16:47;57.97;;;39.17;;
52033;SDS011;38045;52.988;6.536;2022-11-14T02:19:14;62.60;;;42.67;;
52033;SDS011;38045;52.988;6.536;2022-11-14T02:21:39;56.42;;;37.45;;
52033;SDS011;38045;52.988;6.536;2022-11-14T02:24:09;55.38;;;38.08;;
52033;SDS011;38045;52.988;6.536;2022-11-14T02:26:35;57.65;;;39.60;;
52033;SDS011;38045;52.988;6.536;2022-11-14T02:29:02;63.97;;;42.08;;
52033;SDS011;38045;52.988;6.536;2022-11-14T02:31:29;62.78;;;39.58;;
52033;SDS011;38045;52.988;6.536;2022-11-14T02:33:55;63.20;;;40.97;;
52033;SDS011;38045;52.988;6.536;2022-11-14T02:36:20;60.47;;;41.00;;
52033;SDS011;38045;52.988;6.536;2022-11-14T02:38:46;63.30;;;43.35;;
52033;SDS011;38045;52.988;6.536;2022-11-14T02:41:12;60.75;;;38.58;;
52033;SDS011;38045;52.988;6.536;2022-11-14T02:43:37;58.33;;;40.13;;
52033;SDS011;38045;52.988;6.536;2022-11-14T02:46:03;69.55;;;45.13;;
52033;SDS011;38045;52.988;6.536;2022-11-14T02:48:28;69.15;;;44.55;;
52033;SDS011;38045;52.988;6.536;2022-11-14T02:50:54;71.82;;;46.35;;
52033;SDS011;38045;52.988;6.536;2022-11-14T02:53:20;52.72;;;28.75;;
52033;SDS011;38045;52.988;6.536;2022-11-14T02:55:45;66.22;;;41.72;;
52033;SDS011;38045;52.988;6.536;2022-11-14T02:58:11;65.22;;;42.55;;
52033;SDS011;38045;52.988;6.536;2022-11-14T03:00:36;62.45;;;36.42;;
52033;SDS011;38045;52.988;6.536;2022-11-14T03:03:02;59.10;;;42.53;;
52033;SDS011;38045;52.988;6.536;2022-11-14T03:05:28;66.82;;;43.55;;
52033;SDS011;38045;52.988;6.536;2022-11-14T03:07:53;68.90;;;45.58;;
52033;SDS011;38045;52.988;6.536;2022-11-14T03:10:20;70.65;;;44.35;;
52033;SDS011;38045;52.988;6.536;2022-11-14T03:12:46;67.55;;;42.55;;
52033;SDS011;38045;52.988;6.536;2022-11-14T03:15:12;63.63;;;39.30;;
52033;SDS011;38045;52.988;6.536;2022-11-14T03:17:37;60.80;;;41.40;;
52033;SDS011;38045;52.988;6.536;2022-11-14T03:20:04;68.93;;;44.53;;
52033;SDS011;38045;52.988;6.536;2022-11-14T03:22:30;66.15;;;40.35;;
52033;SDS011;38045;52.988;6.536;2022-11-14T03:24:55;67.28;;;40.53;;
52033;SDS011;38045;52.988;6.536;2022-11-14T03:27:21;65.97;;;44.08;;
52033;SDS011;38045;52.988;6.536;2022-11-14T03:29:47;68.07;;;43.55;;
52033;SDS011;38045;52.988;6.536;2022-11-14T03:32:13;62.40;;;39.13;;
52033;SDS011;38045;52.988;6.536;2022-11-14T03:34:39;55.53;;;38.33;;
52033;SDS011;38045;52.988;6.536;2022-11-14T03:37:04;64.95;;;40.85;;
52033;SDS011;38045;52.988;6.536;2022-11-14T03:39:30;62.75;;;37.78;;
52033;SDS011;38045;52.988;6.536;2022-11-14T03:41:55;63.58;;;42.53;;
52033;SDS011;38045;52.988;6.536;2022-11-14T03:44:21;62.28;;;43.28;;
52033;SDS011;38045;52.988;6.536;2022-11-14T03:46:46;67.15;;;46.22;;
52033;SDS011;38045;52.988;6.536;2022-11-14T03:49:12;65.65;;;42.92;;
52033;SDS011;38045;52.988;6.536;2022-11-14T03:51:37;67.65;;;43.55;;
52033;SDS011;38045;52.988;6.536;2022-11-14T03:54:03;67.13;;;41.72;;
52033;SDS011;38045;52.988;6.536;2022-11-14T03:56:29;60.70;;;44.05;;
52033;SDS011;38045;52.988;6.536;2022-11-14T03:58:54;63.15;;;41.95;;
52033;SDS011;38045;52.988;6.536;2022-11-14T04:01:20;64.88;;;43.50;;
52033;SDS011;38045;52.988;6.536;2022-11-14T04:03:45;62.35;;;40.55;;
52033;SDS011;38045;52.988;6.536;2022-11-14T04:06:11;67.93;;;42.00;;
52033;SDS011;38045;52.988;6.536;2022-11-14T04:08:38;60.35;;;38.70;;
52033;SDS011;38045;52.988;6.536;2022-11-14T04:11:05;59.65;;;39.72;;
52033;SDS011;38045;52.988;6.536;2022-11-14T04:13:31;64.88;;;43.47;;
52033;SDS011;38045;52.988;6.536;2022-11-14T04:15:57;66.95;;;45.33;;
52033;SDS011;38045;52.988;6.536;2022-11-14T04:18:23;63.90;;;40.88;;
52033;SDS011;38045;52.988;6.536;2022-11-14T04:20:50;63.13;;;41.80;;
52033;SDS011;38045;52.988;6.536;2022-11-14T04:23:16;65.30;;;43.97;;
52033;SDS011;38045;52.988;6.536;2022-11-14T04:25:42;65.97;;;44.58;;
52033;SDS011;38045;52.988;6.536;2022-11-14T04:28:08;61.47;;;41.50;;
52033;SDS011;38045;52.988;6.536;2022-11-14T04:30:34;62.22;;;40.42;;
52033;SDS011;38045;52.988;6.536;2022-11-14T04:33:00;63.33;;;44.30;;
52033;SDS011;38045;52.988;6.536;2022-11-14T04:35:25;62.22;;;40.55;;
52033;SDS011;38045;52.988;6.536;2022-11-14T04:37:51;60.03;;;39.03;;
52033;SDS011;38045;52.988;6.536;2022-11-14T04:40:16;63.30;;;42.17;;
52033;SDS011;38045;52.988;6.536;2022-11-14T04:42:42;62.65;;;40.42;;
52033;SDS011;38045;52.988;6.536;2022-11-14T04:45:08;60.58;;;40.38;;
52033;SDS011;38045;52.988;6.536;2022-11-14T04:47:33;59.00;;;43.90;;
52033;SDS011;38045;52.988;6.536;2022-11-14T04:49:59;64.70;;;42.20;;
52033;SDS011;38045;52.988;6.536;2022-11-14T04:52:24;61.08;;;41.08;;
52033;SDS011;38045;52.988;6.536;2022-11-14T04:54:50;60.67;;;40.55;;
52033;SDS011;38045;52.988;6.536;2022-11-14T04:57:16;73.65;;;43.97;;
52033;SDS011;38045;52.988;6.536;2022-11-14T04:59:42;63.35;;;42.00;;
52033;SDS011;38045;52.988;6.536;2022-11-14T05:02:07;62.13;;;42.60;;
52033;SDS011;38045;52.988;6.536;2022-11-14T05:04:33;61.45;;;44.85;;
52033;SDS011;38045;52.988;6.536;2022-11-14T05:06:59;58.30;;;37.80;;
52033;SDS011;38045;52.988;6.536;2022-11-14T05:09:24;61.78;;;36.88;;
52033;SDS011;38045;52.988;6.536;2022-11-14T05:11:50;60.00;;;39.65;;
52033;SDS011;38045;52.988;6.536;2022-11-14T05:14:15;63.03;;;43.55;;
52033;SDS011;38045;52.988;6.536;2022-11-14T05:16:41;62.15;;;43.38;;
52033;SDS011;38045;52.988;6.536;2022-11-14T05:19:07;61.85;;;43.95;;
52033;SDS011;38045;52.988;6.536;2022-11-14T05:21:32;54.72;;;37.65;;
52033;SDS011;38045;52.988;6.536;2022-11-14T05:23:58;62.88;;;42.35;;
52033;SDS011;38045;52.988;6.536;2022-11-14T05:26:23;54.22;;;38.35;;
52033;SDS011;38045;52.988;6.536;2022-11-14T05:28:49;62.75;;;43.42;;
52033;SDS011;38045;52.988;6.536;2022-11-14T05:31:15;63.05;;;43.85;;
52033;SDS011;38045;52.988;6.536;2022-11-14T05:33:44;57.35;;;38.70;;
52033;SDS011;38045;52.988;6.536;2022-11-14T05:36:11;60.92;;;38.72;;
52033;SDS011;38045;52.988;6.536;2022-11-14T05:38:38;59.08;;;41.03;;
52033;SDS011;38045;52.988;6.536;2022-11-14T05:41:14;60.28;;;39.47;;
52033;SDS011;38045;52.988;6.536;2022-11-14T05:43:41;65.20;;;40.55;;
52033;SDS011;38045;52.988;6.536;2022-11-14T05:46:11;58.22;;;39.25;;
52033;SDS011;38045;52.988;6.536;2022-11-14T05:48:38;67.07;;;43.13;;
52033;SDS011;38045;52.988;6.536;2022-11-14T05:51:05;61.20;;;39.80;;
52033;SDS011;38045;52.988;6.536;2022-11-14T05:53:31;64.68;;;43.50;;
52033;SDS011;38045;52.988;6.536;2022-11-14T05:56:04;62.67;;;39.88;;
52033;SDS011;38045;52.988;6.536;2022-11-14T05:58:33;44.70;;;28.08;;
52033;SDS011;38045;52.988;6.536;2022-11-14T06:01:00;51.15;;;34.78;;
52033;SDS011;38045;52.988;6.536;2022-11-14T06:03:29;63.17;;;38.70;;
52033;SDS011;38045;52.988;6.536;2022-11-14T06:05:58;65.20;;;41.40;;
52033;SDS011;38045;52.988;6.536;2022-11-14T06:08:26;71.03;;;42.90;;
52033;SDS011;38045;52.988;6.536;2022-11-14T06:10:52;69.32;;;45.75;;
52033;SDS011;38045;52.988;6.536;2022-11-14T06:13:18;50.22;;;32.50;;
52033;SDS011;38045;52.988;6.536;2022-11-14T06:15:43;60.80;;;39.92;;
52033;SDS011;38045;52.988;6.536;2022-11-14T06:18:09;67.93;;;41.83;;
52033;SDS011;38045;52.988;6.536;2022-11-14T06:20:35;61.53;;;41.88;;
52033;SDS011;38045;52.988;6.536;2022-11-14T06:23:00;61.80;;;40.95;;
52033;SDS011;38045;52.988;6.536;2022-11-14T06:25:26;69.13;;;46.97;;
52033;SDS011;38045;52.988;6.536;2022-11-14T06:27:51;67.60;;;42.72;;
52033;SDS011;38045;52.988;6.536;2022-11-14T06:30:17;68.28;;;44.58;;
52033;SDS011;38045;52.988;6.536;2022-11-14T06:32:42;66.75;;;42.35;;
52033;SDS011;38045;52.988;6.536;2022-11-14T06:35:11;69.27;;;41.67;;
52033;SDS011;38045;52.988;6.536;2022-11-14T06:37:36;71.57;;;45.60;;
52033;SDS011;38045;52.988;6.536;2022-11-14T06:40:02;74.55;;;45.38;;
52033;SDS011;38045;52.988;6.536;2022-11-14T06:42:28;67.80;;;41.80;;
52033;SDS011;38045;52.988;6.536;2022-11-14T06:44:53;72.78;;;45.90;;
52033;SDS011;38045;52.988;6.536;2022-11-14T06:47:19;67.28;;;42.10;;
52033;SDS011;38045;52.988;6.536;2022-11-14T06:49:44;70.38;;;44.65;;
52033;SDS011;38045;52.988;6.536;2022-11-14T06:52:10;72.05;;;44.17;;
52033;SDS011;38045;52.988;6.536;2022-11-14T06:54:35;76.85;;;44.92;;
52033;SDS011;38045;52.988;6.536;2022-11-14T06:57:01;76.03;;;46.65;;
52033;SDS011;38045;52.988;6.536;2022-11-14T06:59:26;75.25;;;43.92;;
52033;SDS011;38045;52.988;6.536;2022-11-14T07:01:52;71.50;;;44.35;;
52033;SDS011;38045;52.988;6.536;2022-11-14T07:04:18;75.30;;;45.15;;
52033;SDS011;38045;52.988;6.536;2022-11-14T07:06:43;72.10;;;44.65;;
52033;SDS011;38045;52.988;6.536;2022-11-14T07:09:09;77.43;;;48.45;;
52033;SDS011;38045;52.988;6.536;2022-11-14T07:11:35;75.53;;;44.10;;
52033;SDS011;38045;52.988;6.536;2022-11-14T07:14:02;73.78;;;44.55;;
52033;SDS011;38045;52.988;6.536;2022-11-14T07:16:29;86.32;;;46.38;;
52033;SDS011;38045;52.988;6.536;2022-11-14T07:18:59;76.72;;;48.38;;
52033;SDS011;38045;52.988;6.536;2022-11-14T07:21:27;84.63;;;48.55;;
52033;SDS011;38045;52.988;6.536;2022-11-14T07:23:54;80.18;;;47.47;;
52033;SDS011;38045;52.988;6.536;2022-11-14T07:26:21;73.57;;;45.40;;
52033;SDS011;38045;52.988;6.536;2022-11-14T07:28:46;77.40;;;46.13;;
52033;SDS011;38045;52.988;6.536;2022-11-14T07:31:13;79.85;;;46.03;;
52033;SDS011;38045;52.988;6.536;2022-11-14T07:33:41;70.80;;;42.22;;
52033;SDS011;38045;52.988;6.536;2022-11-14T07:36:08;72.45;;;46.00;;
52033;SDS011;38045;52.988;6.536;2022-11-14T07:38:34;77.25;;;48.55;;
52033;SDS011;38045;52.988;6.536;2022-11-14T07:41:02;65.50;;;41.05;;
52033;SDS011;38045;52.988;6.536;2022-11-14T07:43:29;73.97;;;45.70;;
52033;SDS011;38045;52.988;6.536;2022-11-14T07:45:58;71.45;;;47.15;;
52033;SDS011;38045;52.988;6.536;2022-11-14T07:48:30;79.35;;;48.33;;
52033;SDS011;38045;52.988;6.536;2022-11-14T07:50:59;77.45;;;47.78;;
52033;SDS011;38045;52.988;6.536;2022-11-14T07:53:26;73.55;;;45.55;;
52033;SDS011;38045;52.988;6.536;2022-11-14T07:55:53;74.30;;;43.97;;
52033;SDS011;38045;52.988;6.536;2022-11-14T07:58:19;78.90;;;44.45;;
52033;SDS011;38045;52.988;6.536;2022-11-14T08:00:44;74.72;;;46.75;;
52033;SDS011;38045;52.988;6.536;2022-11-14T08:03:10;78.95;;;45.03;;
52033;SDS011;38045;52.988;6.536;2022-11-14T08:05:36;73.07;;;44.50;;
52033;SDS011;38045;52.988;6.536;2022-11-14T08:08:02;70.28;;;46.13;;
52033;SDS011;38045;52.988;6.536;2022-11-14T08:10:27;59.83;;;34.08;;
52033;SDS011;38045;52.988;6.536;2022-11-14T08:12:57;73.78;;;44.97;;
52033;SDS011;38045;52.988;6.536;2022-11-14T08:15:24;66.25;;;37.80;;
52033;SDS011;38045;52.988;6.536;2022-11-14T08:17:50;72.32;;;45.50;;
52033;SDS011;38045;52.988;6.536;2022-11-14T08:20:15;66.05;;;41.70;;
52033;SDS011;38045;52.988;6.536;2022-11-14T08:22:41;65.20;;;41.00;;
52033;SDS011;38045;52.988;6.536;2022-11-14T08:25:06;75.30;;;44.95;;
52033;SDS011;38045;52.988;6.536;2022-11-14T08:27:32;69.15;;;40.50;;
52033;SDS011;38045;52.988;6.536;2022-11-14T08:29:58;73.22;;;45.67;;
52033;SDS011;38045;52.988;6.536;2022-11-14T08:32:23;69.32;;;40.58;;
52033;SDS011;38045;52.988;6.536;2022-11-14T08:34:49;75.38;;;45.72;;
52033;SDS011;38045;52.988;6.536;2022-11-14T08:37:14;72.13;;;44.42;;
52033;SDS011;38045;52.988;6.536;2022-11-14T08:39:40;70.80;;;42.78;;
52033;SDS011;38045;52.988;6.536;2022-11-14T08:42:06;77.22;;;45.53;;
52033;SDS011;38045;52.988;6.536;2022-11-14T08:44:31;73.65;;;42.08;;
52033;SDS011;38045;52.988;6.536;2022-11-14T08:46:57;62.30;;;39.95;;
52033;SDS011;38045;52.988;6.536;2022-11-14T08:49:24;63.08;;;38.75;;
52033;SDS011;38045;52.988;6.536;2022-11-14T08:51:51;62.55;;;37.35;;
52033;SDS011;38045;52.988;6.536;2022-11-14T08:54:17;65.38;;;40.88;;
52033;SDS011;38045;52.988;6.536;2022-11-14T08:56:43;58.72;;;37.45;;
52033;SDS011;38045;52.988;6.536;2022-11-14T08:59:09;63.47;;;40.80;;
52033;SDS011;38045;52.988;6.536;2022-11-14T09:01:34;66.22;;;41.63;;
52033;SDS011;38045;52.988;6.536;2022-11-14T09:04:00;63.05;;;42.63;;
52033;SDS011;38045;52.988;6.536;2022-11-14T09:06:26;67.15;;;42.20;;
52033;SDS011;38045;52.988;6.536;2022-11-14T09:08:51;62.70;;;41.28;;
52033;SDS011;38045;52.988;6.536;2022-11-14T09:11:17;67.40;;;42.58;;
52033;SDS011;38045;52.988;6.536;2022-11-14T09:13:42;64.72;;;41.58;;
52033;SDS011;38045;52.988;6.536;2022-11-14T09:16:08;64.45;;;40.03;;
52033;SDS011;38045;52.988;6.536;2022-11-14T09:18:33;61.97;;;38.00;;
52033;SDS011;38045;52.988;6.536;2022-11-14T09:21:04;60.65;;;36.78;;
52033;SDS011;38045;52.988;6.536;2022-11-14T09:23:31;53.83;;;36.63;;
52033;SDS011;38045;52.988;6.536;2022-11-14T09:25:57;66.28;;;40.05;;
52033;SDS011;38045;52.988;6.536;2022-11-14T09:28:27;58.38;;;37.28;;
52033;SDS011;38045;52.988;6.536;2022-11-14T09:30:53;60.35;;;38.97;;
52033;SDS011;38045;52.988;6.536;2022-11-14T09:33:34;57.20;;;35.45;;
52033;SDS011;38045;52.988;6.536;2022-11-14T09:36:04;54.20;;;35.72;;
52033;SDS011;38045;52.988;6.536;2022-11-14T09:38:31;57.35;;;35.88;;
52033;SDS011;38045;52.988;6.536;2022-11-14T09:46:19;53.83;;;35.47;;
52033;SDS011;38045;52.988;6.536;2022-11-14T09:48:46;61.42;;;35.13;;
52033;SDS011;38045;52.988;6.536;2022-11-14T09:51:16;50.10;;;35.30;;
52033;SDS011;38045;52.988;6.536;2022-11-14T09:56:16;52.00;;;36.78;;
52033;SDS011;38045;52.988;6.536;2022-11-14T09:58:46;56.03;;;36.65;;
52033;SDS011;38045;52.988;6.536;2022-11-14T10:12:04;58.13;;;37.40;;
52033;SDS011;38045;52.988;6.536;2022-11-14T10:20:50;59.33;;;37.40;;
52033;SDS011;38045;52.988;6.536;2022-11-14T10:36:26;41.83;;;27.55;;
52033;SDS011;38045;52.988;6.536;2022-11-14T10:41:42;55.33;;;33.17;;
52033;SDS011;38045;52.988;6.536;2022-11-14T10:44:11;47.53;;;32.83;;
52033;SDS011;38045;52.988;6.536;2022-11-14T10:46:55;46.53;;;31.10;;
52033;SDS011;38045;52.988;6.536;2022-11-14T10:49:25;50.63;;;34.58;;
52033;SDS011;38045;52.988;6.536;2022-11-14T10:51:56;46.47;;;31.35;;
52033;SDS011;38045;52.988;6.536;2022-11-14T10:54:33;35.17;;;19.25;;
52033;SDS011;38045;52.988;6.536;2022-11-14T10:57:16;47.30;;;30.80;;
52033;SDS011;38045;52.988;6.536;2022-11-14T10:59:43;49.13;;;35.40;;
52033;SDS011;38045;52.988;6.536;2022-11-14T11:02:09;49.97;;;34.60;;
52033;SDS011;38045;52.988;6.536;2022-11-14T11:04:35;42.85;;;32.80;;
52033;SDS011;38045;52.988;6.536;2022-11-14T11:09:34;42.58;;;30.02;;
52033;SDS011;38045;52.988;6.536;2022-11-14T11:12:22;41.53;;;29.00;;
52033;SDS011;38045;52.988;6.536;2022-11-14T11:15:06;49.13;;;34.70;;
52033;SDS011;38045;52.988;6.536;2022-11-14T11:20:25;45.90;;;31.05;;
52033;SDS011;38045;52.988;6.536;2022-11-14T11:23:27;44.25;;;31.15;;
52033;SDS011;38045;52.988;6.536;2022-11-14T11:25:57;45.33;;;31.83;;
52033;SDS011;38045;52.988;6.536;2022-11-14T11:28:25;43.63;;;29.15;;
52033;SDS011;38045;52.988;6.536;2022-11-14T11:30:59;38.67;;;26.08;;
52033;SDS011;38045;52.988;6.536;2022-11-14T11:33:32;42.45;;;29.95;;
52033;SDS011;38045;52.988;6.536;2022-11-14T11:36:12;44.65;;;31.42;;
52033;SDS011;38045;52.988;6.536;2022-11-14T11:38:41;46.15;;;31.85;;
52033;SDS011;38045;52.988;6.536;2022-11-14T11:43:49;45.45;;;29.48;;
52033;SDS011;38045;52.988;6.536;2022-11-14T11:46:26;40.78;;;28.70;;
52033;SDS011;38045;52.988;6.536;2022-11-14T11:49:14;39.83;;;26.45;;
52033;SDS011;38045;52.988;6.536;2022-11-14T11:51:52;42.45;;;28.70;;
52033;SDS011;38045;52.988;6.536;2022-11-14T11:54:20;38.28;;;28.10;;
52033;SDS011;38045;52.988;6.536;2022-11-14T11:56:51;44.22;;;28.02;;
52033;SDS011;38045;52.988;6.536;2022-11-14T12:01:50;43.00;;;29.80;;
52033;SDS011;38045;52.988;6.536;2022-11-14T12:04:16;41.90;;;28.55;;
52033;SDS011;38045;52.988;6.536;2022-11-14T12:06:44;41.20;;;26.55;;
52033;SDS011;38045;52.988;6.536;2022-11-14T12:09:18;39.03;;;26.77;;
52033;SDS011;38045;52.988;6.536;2022-11-14T12:11:52;40.85;;;29.13;;
52033;SDS011;38045;52.988;6.536;2022-11-14T12:14:37;40.15;;;28.02;;
52033;SDS011;38045;52.988;6.536;2022-11-14T12:20:04;44.85;;;31.50;;
52033;SDS011;38045;52.988;6.536;2022-11-14T12:30:55;44.30;;;30.23;;
52033;SDS011;38045;52.988;6.536;2022-11-14T12:33:32;41.40;;;30.45;;
52033;SDS011;38045;52.988;6.536;2022-11-14T12:36:01;40.63;;;27.33;;
52033;SDS011;38045;52.988;6.536;2022-11-14T12:38:43;40.85;;;28.95;;
52033;SDS011;38045;52.988;6.536;2022-11-14T12:41:35;41.15;;;28.45;;
52033;SDS011;38045;52.988;6.536;2022-11-14T12:44:30;44.88;;;29.85;;
52033;SDS011;38045;52.988;6.536;2022-11-14T12:55:30;33.88;;;26.65;;
52033;SDS011;38045;52.988;6.536;2022-11-14T13:06:10;32.65;;;24.75;;
52033;SDS011;38045;52.988;6.536;2022-11-14T13:08:53;32.00;;;23.38;;
52033;SDS011;38045;52.988;6.536;2022-11-14T13:11:43;30.58;;;23.60;;
52033;SDS011;38045;52.988;6.536;2022-11-14T13:14:29;30.10;;;23.27;;
52033;SDS011;38045;52.988;6.536;2022-11-14T13:19:58;26.25;;;20.13;;
52033;SDS011;38045;52.988;6.536;2022-11-14T13:22:44;30.40;;;23.38;;
52033;SDS011;38045;52.988;6.536;2022-11-14T13:27:40;28.15;;;21.35;;
52033;SDS011;38045;52.988;6.536;2022-11-14T13:30:05;29.55;;;23.50;;
52033;SDS011;38045;52.988;6.536;2022-11-14T13:35:29;34.03;;;22.73;;
52033;SDS011;38045;52.988;6.536;2022-11-14T13:40:55;36.17;;;25.92;;
52033;SDS011;38045;52.988;6.536;2022-11-14T13:50:07;30.90;;;23.90;;
52033;SDS011;38045;52.988;6.536;2022-11-14T13:52:11;35.05;;;24.40;;
52033;SDS011;38045;52.988;6.536;2022-11-14T13:54:36;31.52;;;23.50;;
52033;SDS011;38045;52.988;6.536;2022-11-14T14:00:13;30.48;;;21.50;;
52033;SDS011;38045;52.988;6.536;2022-11-14T14:02:46;31.08;;;22.85;;
52033;SDS011;38045;52.988;6.536;2022-11-14T14:11:21;27.52;;;22.85;;
52033;SDS011;38045;52.988;6.536;2022-11-14T14:14:08;27.30;;;22.13;;
52033;SDS011;38045;52.988;6.536;2022-11-14T14:19:31;29.15;;;21.33;;
52033;SDS011;38045;52.988;6.536;2022-11-14T14:27:28;28.02;;;21.73;;
52033;SDS011;38045;52.988;6.536;2022-11-14T14:30:16;22.95;;;18.33;;
52033;SDS011;38045;52.988;6.536;2022-11-14T14:32:43;24.05;;;18.05;;
52033;SDS011;38045;52.988;6.536;2022-11-14T14:35:28;24.80;;;19.30;;
52033;SDS011;38045;52.988;6.536;2022-11-14T14:37:55;26.65;;;20.80;;
52033;SDS011;38045;52.988;6.536;2022-11-14T14:40:23;21.75;;;18.23;;
52033;SDS011;38045;52.988;6.536;2022-11-14T14:42:55;26.20;;;19.10;;
52033;SDS011;38045;52.988;6.536;2022-11-14T14:45:24;25.67;;;20.30;;
52033;SDS011;38045;52.988;6.536;2022-11-14T14:48:00;21.40;;;17.30;;
52033;SDS011;38045;52.988;6.536;2022-11-14T14:53:06;26.40;;;17.98;;
52033;SDS011;38045;52.988;6.536;2022-11-14T14:56:00;24.75;;;20.00;;
52033;SDS011;38045;52.988;6.536;2022-11-14T14:58:31;25.10;;;17.52;;
52033;SDS011;38045;52.988;6.536;2022-11-14T15:03:32;24.83;;;20.00;;
52033;SDS011;38045;52.988;6.536;2022-11-14T15:06:02;24.75;;;19.67;;
52033;SDS011;38045;52.988;6.536;2022-11-14T15:08:34;27.20;;;20.02;;
52033;SDS011;38045;52.988;6.536;2022-11-14T15:11:02;30.02;;;21.75;;
52033;SDS011;38045;52.988;6.536;2022-11-14T15:13:29;28.00;;;18.45;;
52033;SDS011;38045;52.988;6.536;2022-11-14T15:15:56;27.95;;;19.85;;
52033;SDS011;38045;52.988;6.536;2022-11-14T15:18:27;26.33;;;20.23;;
52033;SDS011;38045;52.988;6.536;2022-11-14T15:21:14;25.00;;;19.10;;
52033;SDS011;38045;52.988;6.536;2022-11-14T15:23:56;27.38;;;18.15;;
52033;SDS011;38045;52.988;6.536;2022-11-14T15:26:48;27.27;;;19.70;;
52033;SDS011;38045;52.988;6.536;2022-11-14T15:29:16;25.15;;;20.35;;
52033;SDS011;38045;52.988;6.536;2022-11-14T15:32:04;27.55;;;21.20;;
52033;SDS011;38045;52.988;6.536;2022-11-14T15:34:30;26.98;;;19.10;;
52033;SDS011;38045;52.988;6.536;2022-11-14T15:39:37;27.88;;;18.20;;
52033;SDS011;38045;52.988;6.536;2022-11-14T15:42:13;28.35;;;19.65;;
52033;SDS011;38045;52.988;6.536;2022-11-14T15:44:43;22.70;;;19.13;;
52033;SDS011;38045;52.988;6.536;2022-11-14T15:47:11;21.67;;;17.20;;
52033;SDS011;38045;52.988;6.536;2022-11-14T15:52:37;21.15;;;15.48;;
52033;SDS011;38045;52.988;6.536;2022-11-14T15:55:17;20.60;;;15.70;;
52033;SDS011;38045;52.988;6.536;2022-11-14T15:57:44;23.13;;;15.57;;
52033;SDS011;38045;52.988;6.536;2022-11-14T16:00:13;21.30;;;16.88;;
52033;SDS011;38045;52.988;6.536;2022-11-14T16:02:40;19.52;;;15.57;;
52033;SDS011;38045;52.988;6.536;2022-11-14T16:05:11;20.65;;;15.65;;
52033;SDS011;38045;52.988;6.536;2022-11-14T16:07:38;21.50;;;15.02;;
52033;SDS011;38045;52.988;6.536;2022-11-14T16:10:05;20.65;;;15.13;;
52033;SDS011;38045;52.988;6.536;2022-11-14T16:12:43;20.98;;;14.38;;
52033;SDS011;38045;52.988;6.536;2022-11-14T16:15:09;21.13;;;16.13;;
52033;SDS011;38045;52.988;6.536;2022-11-14T16:17:40;20.23;;;15.50;;
52033;SDS011;38045;52.988;6.536;2022-11-14T16:20:17;18.10;;;15.05;;
52033;SDS011;38045;52.988;6.536;2022-11-14T16:22:45;22.52;;;17.17;;
52033;SDS011;38045;52.988;6.536;2022-11-14T16:25:15;17.90;;;15.68;;
52033;SDS011;38045;52.988;6.536;2022-11-14T16:27:44;21.40;;;16.75;;
52033;SDS011;38045;52.988;6.536;2022-11-14T16:30:14;21.90;;;16.90;;
52033;SDS011;38045;52.988;6.536;2022-11-14T16:32:41;20.05;;;15.48;;
52033;SDS011;38045;52.988;6.536;2022-11-14T16:35:15;20.17;;;16.02;;
52033;SDS011;38045;52.988;6.536;2022-11-14T16:37:42;21.75;;;15.45;;